Adel, Georgia
Current Conditions -  °F | °C
As of 10:58 PM on Wednesday 26 Nov 2014 (Local Time) from KVAD Reporting Station
Clear Clear  
Wind Chill: 46°   Ceiling: Unl
Heat Index: 48°   Visibility: 10mi
Dew Point: 33°   Wind: 5mph
Humidity: 58%   Direction: 190°S
Pressure: 30.19"   Gusts: NA
Location:  31.14°N, 83.42°W
Report Text: KVAD 270358Z AUTO 19004KT 10SM CLR 09/01 A3019 RMK AO2 SLP226 T00870008 $
Loading
Personal Weather Stations






























Interactive Weather Map New forecast layout! Learn more

10-Day Weather Forecast

Advertisements
Track Severe Weather on mobile